createdAt,value
2023-05-22T00:01:10.511Z,12.85
2023-05-22T00:03:37.502Z,13.93
2023-05-22T00:06:06.228Z,14.48
2023-05-22T00:08:33.144Z,14.93
2023-05-22T00:11:00.098Z,13.68
2023-05-22T00:13:27.126Z,11.23
2023-05-22T00:15:54.102Z,11.65
2023-05-22T00:18:21.074Z,12.15
2023-05-22T00:20:48.384Z,11.55
2023-05-22T00:23:15.683Z,9.35
2023-05-22T00:25:42.832Z,13.05
2023-05-22T00:28:09.864Z,10.75
2023-05-22T00:30:37.249Z,11.20
2023-05-22T00:33:04.478Z,16.98
2023-05-22T00:35:31.484Z,13.27
2023-05-22T00:37:58.657Z,10.60
2023-05-22T00:40:26.438Z,12.43
2023-05-22T00:42:53.821Z,12.82
2023-05-22T00:45:22.280Z,8.43
2023-05-22T00:47:49.279Z,9.63
2023-05-22T00:50:17.079Z,10.85
2023-05-22T00:52:45.635Z,11.82
2023-05-22T00:55:13.725Z,9.68
2023-05-22T00:57:42.078Z,10.20
2023-05-22T01:00:13.326Z,12.50
2023-05-22T01:02:43.042Z,10.32
2023-05-22T01:05:13.205Z,9.90
2023-05-22T01:07:40.645Z,9.00
2023-05-22T01:10:08.271Z,11.75
2023-05-22T01:12:38.154Z,13.07
2023-05-22T01:15:47.396Z,10.77
2023-05-22T01:18:19.767Z,9.65
2023-05-22T01:20:55.212Z,13.77
2023-05-22T01:23:40.401Z,12.40
2023-05-22T01:26:22.218Z,9.50
2023-05-22T01:29:10.320Z,9.15
2023-05-22T01:31:39.504Z,10.48
2023-05-22T01:34:07.290Z,10.13
2023-05-22T01:36:37.514Z,12.48
2023-05-22T01:39:06.506Z,9.45
2023-05-22T01:41:34.143Z,11.02
2023-05-22T01:44:01.420Z,10.38
2023-05-22T01:46:29.406Z,12.43
2023-05-22T01:48:56.890Z,12.05
2023-05-22T01:51:33.563Z,12.15
2023-05-22T01:54:20.162Z,16.92
2023-05-22T01:57:41.363Z,12.55
2023-05-22T02:00:09.950Z,10.88
2023-05-22T02:02:49.156Z,13.07
2023-05-22T02:05:20.364Z,9.82
2023-05-22T02:07:47.369Z,12.07
2023-05-22T02:10:14.347Z,9.35
2023-05-22T02:12:41.316Z,10.55
2023-05-22T02:15:08.905Z,15.57
2023-05-22T02:17:42.646Z,15.00
2023-05-22T02:20:15.308Z,9.73
2023-05-22T02:22:46.527Z,12.70
2023-05-22T02:25:17.233Z,11.20
2023-05-22T02:27:46.573Z,14.55
2023-05-22T02:30:14.167Z,11.88
2023-05-22T02:32:42.371Z,11.13
2023-05-22T02:35:09.639Z,11.07
2023-05-22T02:37:36.703Z,18.15
2023-05-22T02:40:06.363Z,13.13
2023-05-22T02:42:33.624Z,12.90
2023-05-22T02:45:01.531Z,9.93
2023-05-22T02:47:28.546Z,8.57
2023-05-22T02:49:57.996Z,10.35
2023-05-22T02:52:25.154Z,10.65
2023-05-22T02:54:52.087Z,10.25
2023-05-22T02:57:20.495Z,9.10
2023-05-22T02:59:47.486Z,9.75
2023-05-22T03:02:15.479Z,10.88
2023-05-22T03:04:42.414Z,11.55
2023-05-22T03:07:09.452Z,11.50
2023-05-22T03:09:36.592Z,8.68
2023-05-22T03:12:04.978Z,9.95
2023-05-22T03:14:31.959Z,11.70
2023-05-22T03:16:59.055Z,10.90
2023-05-22T03:19:26.528Z,9.40
2023-05-22T03:21:53.612Z,12.30
2023-05-22T03:24:22.016Z,11.60
2023-05-22T03:26:48.921Z,12.52
2023-05-22T03:29:21.874Z,12.27
2023-05-22T03:31:49.033Z,11.77
2023-05-22T03:34:16.868Z,11.88
2023-05-22T03:36:46.502Z,9.73
2023-05-22T03:39:16.124Z,11.45
2023-05-22T03:41:51.860Z,8.60
2023-05-22T03:44:19.621Z,12.65
2023-05-22T03:46:46.828Z,12.32
2023-05-22T03:49:15.153Z,12.88
2023-05-22T03:51:42.045Z,13.82
2023-05-22T03:54:08.988Z,10.68
2023-05-22T03:56:35.884Z,14.88
2023-05-22T03:59:02.857Z,12.20
2023-05-22T04:01:29.952Z,10.57
2023-05-22T04:03:56.896Z,13.50
2023-05-22T04:06:23.850Z,12.13
2023-05-22T04:08:50.881Z,9.70
2023-05-22T04:11:18.585Z,10.57
2023-05-22T04:13:46.023Z,14.48
2023-05-22T04:16:13.099Z,10.90
2023-05-22T04:18:40.177Z,9.63
2023-05-22T04:21:09.905Z,18.50
2023-05-22T04:23:38.634Z,20.73
2023-05-22T04:26:08.858Z,11.75
2023-05-22T04:28:35.900Z,11.20
2023-05-22T04:31:06.485Z,12.50
2023-05-22T04:33:34.596Z,10.27
2023-05-22T04:36:02.559Z,11.73
2023-05-22T04:38:29.592Z,15.32
2023-05-22T04:40:57.099Z,14.13
2023-05-22T04:43:26.790Z,10.60
2023-05-22T04:45:54.962Z,15.70
2023-05-22T04:48:22.539Z,12.07
2023-05-22T04:50:54.363Z,12.82
2023-05-22T04:53:22.174Z,16.10
2023-05-22T04:55:49.774Z,11.80
2023-05-22T04:58:17.517Z,10.75
2023-05-22T05:00:45.779Z,10.27
2023-05-22T05:03:12.937Z,10.50
2023-05-22T05:05:41.877Z,10.65
2023-05-22T05:08:08.992Z,11.43
2023-05-22T05:10:35.967Z,15.15
2023-05-22T05:13:03.016Z,12.98
2023-05-22T05:15:32.393Z,7.85
2023-05-22T05:18:02.598Z,12.80
2023-05-22T05:20:32.197Z,8.98
2023-05-22T05:25:30.114Z,13.82
2023-05-22T05:27:57.777Z,9.57
2023-05-22T05:30:24.842Z,9.48
2023-05-22T05:33:10.475Z,9.48
2023-05-22T05:38:12.823Z,6.78
2023-05-22T05:40:43.964Z,7.05
2023-05-22T05:43:15.198Z,7.38
2023-05-22T05:45:43.753Z,6.10
2023-05-22T05:48:12.180Z,10.05
2023-05-22T05:50:45.997Z,6.00
2023-05-22T05:53:12.892Z,5.07
2023-05-22T05:55:44.549Z,6.45
2023-05-22T05:58:11.707Z,9.95
2023-05-22T06:00:45.045Z,7.03
2023-05-22T06:03:12.144Z,7.75
2023-05-22T06:05:54.564Z,4.90
2023-05-22T06:08:42.450Z,6.15
2023-05-22T06:11:09.594Z,6.88
2023-05-22T06:13:39.504Z,5.15
2023-05-22T06:16:07.811Z,6.05
2023-05-22T06:18:35.284Z,4.60
2023-05-22T06:21:02.341Z,5.20
2023-05-22T06:23:29.660Z,5.38
2023-05-22T06:25:57.428Z,6.75
2023-05-22T06:28:25.766Z,4.43
2023-05-22T06:30:52.955Z,4.82
2023-05-22T06:33:22.565Z,5.05
2023-05-22T06:35:50.410Z,4.50
2023-05-22T06:38:18.965Z,6.72
2023-05-22T06:40:46.144Z,7.45
2023-05-22T06:43:17.016Z,4.70
2023-05-22T06:45:49.550Z,6.93
2023-05-22T06:48:45.914Z,6.03
2023-05-22T06:51:24.546Z,6.32
2023-05-22T06:53:55.357Z,6.10
2023-05-22T06:56:27.228Z,5.72
2023-05-22T06:58:59.182Z,5.55
2023-05-22T07:01:44.802Z,7.22
2023-05-22T07:04:15.376Z,6.57
2023-05-22T07:06:52.704Z,8.73
2023-05-22T07:09:20.048Z,6.55
2023-05-22T07:11:49.077Z,5.05
2023-05-22T07:14:18.110Z,6.05
2023-05-22T07:16:46.128Z,5.40
2023-05-22T07:19:16.910Z,6.72
2023-05-22T07:21:43.917Z,6.05
2023-05-22T07:24:12.878Z,7.03
2023-05-22T07:26:46.194Z,6.97
2023-05-22T07:29:14.170Z,6.90
2023-05-22T07:31:42.439Z,5.07
2023-05-22T07:34:10.572Z,7.55
2023-05-22T07:36:38.033Z,11.23
2023-05-22T07:39:05.673Z,6.20
2023-05-22T07:41:36.835Z,7.50
2023-05-22T07:44:04.950Z,7.90
2023-05-22T07:46:37.721Z,6.22
2023-05-22T07:49:11.767Z,6.75
2023-05-22T07:51:41.704Z,6.85
2023-05-22T07:54:10.262Z,9.75
2023-05-22T07:56:44.076Z,6.20
2023-05-22T07:59:12.136Z,9.23
2023-05-22T08:01:39.996Z,5.40
2023-05-22T08:04:07.065Z,8.25
2023-05-22T08:06:36.935Z,8.32
2023-05-22T08:09:06.747Z,9.00
2023-05-22T08:11:35.057Z,8.88
2023-05-22T08:14:02.061Z,7.20
2023-05-22T08:16:30.051Z,10.98
2023-05-22T08:18:57.113Z,6.30
2023-05-22T08:21:24.104Z,8.57
2023-05-22T08:23:51.061Z,7.35
2023-05-22T08:26:18.061Z,6.80
2023-05-22T08:28:45.015Z,9.52
2023-05-22T08:31:12.566Z,6.22
2023-05-22T08:33:39.829Z,10.05
2023-05-22T08:36:06.866Z,9.18
2023-05-22T08:38:33.945Z,8.18
2023-05-22T08:41:00.912Z,10.00
2023-05-22T08:43:28.594Z,7.13
2023-05-22T08:46:05.963Z,15.05
2023-05-22T08:48:33.222Z,13.88
2023-05-22T08:51:03.842Z,6.55
2023-05-22T08:53:36.723Z,6.95
2023-05-22T08:56:05.117Z,7.10
2023-05-22T08:58:33.649Z,9.48
2023-05-22T09:01:00.695Z,6.75
2023-05-22T09:03:33.018Z,7.07
2023-05-22T09:06:01.293Z,7.28
2023-05-22T09:08:31.327Z,10.07
2023-05-22T09:10:58.422Z,10.98
2023-05-22T09:13:29.711Z,5.68
2023-05-22T09:16:15.144Z,6.65
2023-05-22T09:18:42.648Z,6.13
2023-05-22T09:21:28.721Z,6.38
2023-05-22T09:24:01.223Z,8.30
2023-05-22T09:26:29.424Z,6.22
2023-05-22T09:28:57.311Z,6.25
2023-05-22T09:31:24.327Z,7.82
2023-05-22T09:33:51.363Z,9.90
2023-05-22T09:36:18.262Z,9.13
2023-05-22T09:38:45.193Z,9.35
2023-05-22T09:41:12.032Z,11.90
2023-05-22T09:43:39.004Z,6.57
2023-05-22T09:46:05.961Z,8.60
2023-05-22T09:48:37.576Z,7.22
2023-05-22T09:51:05.520Z,7.20
2023-05-22T09:53:33.240Z,6.63
2023-05-22T09:56:00.433Z,6.85
2023-05-22T09:58:30.837Z,7.80
2023-05-22T10:00:58.374Z,7.45
2023-05-22T10:03:26.601Z,14.68
2023-05-22T10:05:57.008Z,9.27
2023-05-22T10:08:30.628Z,8.48
2023-05-22T10:10:58.704Z,8.65
2023-05-22T10:13:26.290Z,8.63
2023-05-22T10:15:53.327Z,8.63
2023-05-22T10:18:20.309Z,9.80
2023-05-22T10:20:47.378Z,10.00
2023-05-22T10:23:17.352Z,7.97
2023-05-22T10:25:45.456Z,10.45
2023-05-22T10:28:13.689Z,9.98
2023-05-22T10:30:49.690Z,8.48
2023-05-22T10:33:47.418Z,8.95
2023-05-22T10:36:20.332Z,7.85
2023-05-22T10:38:56.784Z,7.50
2023-05-22T10:41:24.020Z,6.88
2023-05-22T10:43:51.250Z,10.15
2023-05-22T10:46:18.398Z,7.82
2023-05-22T10:48:46.605Z,6.45
2023-05-22T10:51:14.636Z,8.30
2023-05-22T10:53:43.059Z,8.63
2023-05-22T10:56:16.461Z,7.38
2023-05-22T10:58:47.063Z,10.38
2023-05-22T11:01:17.050Z,8.50
2023-05-22T11:03:54.476Z,9.88
2023-05-22T11:06:36.507Z,7.13
2023-05-22T11:09:30.961Z,10.02
2023-05-22T11:12:17.954Z,9.27
2023-05-22T11:15:02.788Z,9.38
2023-05-22T11:17:33.859Z,8.10
2023-05-22T11:20:01.810Z,10.77
2023-05-22T11:22:33.334Z,7.07
2023-05-22T11:25:00.344Z,14.30
2023-05-22T11:27:27.437Z,8.60
2023-05-22T11:29:54.958Z,8.27
2023-05-22T11:32:23.649Z,10.73
2023-05-22T11:34:50.746Z,7.13
2023-05-22T11:37:19.078Z,8.57
2023-05-22T11:39:56.258Z,7.72
2023-05-22T11:42:23.128Z,8.00
2023-05-22T11:44:50.108Z,9.02
2023-05-22T11:47:17.074Z,9.02
2023-05-22T11:49:44.178Z,8.68
2023-05-22T11:52:11.173Z,8.55
2023-05-22T11:54:38.957Z,9.45
2023-05-22T11:57:08.151Z,8.48
2023-05-22T11:59:35.612Z,10.45
2023-05-22T12:02:02.568Z,9.85
2023-05-22T12:04:29.741Z,11.63
2023-05-22T12:06:56.886Z,8.15
2023-05-22T12:09:24.076Z,9.40
2023-05-22T12:11:51.078Z,11.35
2023-05-22T12:14:18.302Z,8.32
2023-05-22T12:16:45.416Z,10.00
2023-05-22T12:19:15.066Z,7.10
2023-05-22T12:21:42.293Z,9.15
2023-05-22T12:24:10.910Z,7.55
2023-05-22T12:26:38.082Z,11.77
2023-05-22T12:29:07.406Z,16.95
2023-05-22T12:31:36.332Z,7.63
2023-05-22T12:34:05.786Z,7.70
2023-05-22T12:36:39.732Z,6.75
2023-05-22T12:39:11.129Z,6.95
2023-05-22T12:41:38.641Z,10.25
2023-05-22T12:44:06.177Z,8.30
2023-05-22T12:46:33.713Z,9.43
2023-05-22T12:49:01.067Z,6.43
2023-05-22T12:51:29.844Z,8.10
2023-05-22T12:53:57.455Z,11.75
2023-05-22T12:56:24.421Z,8.65
2023-05-22T12:58:51.543Z,7.07
2023-05-22T13:01:18.517Z,8.38
2023-05-22T13:03:46.290Z,10.27
2023-05-22T13:06:13.409Z,7.30
2023-05-22T13:08:40.327Z,6.93
2023-05-22T13:11:07.248Z,6.57
2023-05-22T13:13:34.230Z,8.13
2023-05-22T13:16:01.248Z,6.22
2023-05-22T13:18:28.168Z,5.75
2023-05-22T13:20:57.545Z,6.07
2023-05-22T13:23:24.507Z,7.63
2023-05-22T13:25:51.463Z,8.88
2023-05-22T13:28:18.395Z,6.47
2023-05-22T13:30:45.499Z,7.97
2023-05-22T13:33:13.572Z,5.80
2023-05-22T13:35:40.673Z,6.28
2023-05-22T13:38:07.874Z,10.75
2023-05-22T13:40:34.868Z,7.20
2023-05-22T13:43:01.831Z,9.63
2023-05-22T13:45:28.686Z,8.40
2023-05-22T13:47:55.958Z,9.82
2023-05-22T13:50:22.993Z,9.13
2023-05-22T13:52:49.966Z,12.63
2023-05-22T13:55:16.997Z,8.35
2023-05-22T13:57:43.909Z,9.65
2023-05-22T14:00:11.334Z,8.27
2023-05-22T14:02:38.613Z,10.20
2023-05-22T14:05:06.043Z,9.73
2023-05-22T14:07:32.938Z,11.43
2023-05-22T14:10:01.141Z,8.40
2023-05-22T14:12:28.658Z,7.57
2023-05-22T14:14:55.676Z,21.40
2023-05-22T14:17:22.596Z,10.30
2023-05-22T14:19:49.549Z,12.98
2023-05-22T14:22:16.437Z,10.15
2023-05-22T14:24:43.397Z,8.52
2023-05-22T14:27:10.316Z,7.75
2023-05-22T14:29:39.742Z,16.05
2023-05-22T14:32:07.133Z,10.48
2023-05-22T14:34:34.099Z,8.70
2023-05-22T14:37:01.080Z,11.38
2023-05-22T14:39:28.075Z,7.35
2023-05-22T14:41:55.009Z,8.43
2023-05-22T14:44:25.022Z,7.65
2023-05-22T14:46:53.534Z,10.25
2023-05-22T14:49:20.545Z,7.10
2023-05-22T14:51:48.362Z,13.27
2023-05-22T14:54:18.010Z,8.65
2023-05-22T14:56:45.481Z,8.02
2023-05-22T14:59:12.411Z,8.38
2023-05-22T15:01:39.530Z,10.65
2023-05-22T15:04:07.998Z,12.15
2023-05-22T15:06:35.641Z,10.90
2023-05-22T15:09:02.524Z,8.43
2023-05-22T15:11:29.422Z,10.35
2023-05-22T15:13:56.425Z,17.05
2023-05-22T15:16:23.512Z,10.95
2023-05-22T15:18:50.697Z,7.78
2023-05-22T15:21:17.824Z,8.43
2023-05-22T15:23:44.756Z,8.20
2023-05-22T15:26:11.709Z,7.55
2023-05-22T15:28:38.702Z,9.00
2023-05-22T15:31:05.715Z,8.38
2023-05-22T15:33:34.075Z,8.50
2023-05-22T15:36:01.030Z,7.60
2023-05-22T15:38:28.781Z,8.85
2023-05-22T15:40:55.800Z,9.43
2023-05-22T15:43:24.337Z,14.68
2023-05-22T15:45:53.604Z,8.75
2023-05-22T15:48:20.903Z,11.55
2023-05-22T15:50:47.774Z,7.93
2023-05-22T15:53:14.663Z,11.18
2023-05-22T15:55:41.753Z,8.32
2023-05-22T15:58:08.825Z,7.72
2023-05-22T16:00:40.992Z,13.95
2023-05-22T16:03:11.387Z,8.57
2023-05-22T16:05:41.775Z,8.40
2023-05-22T16:08:11.519Z,7.93
2023-05-22T16:10:41.530Z,7.68
2023-05-22T16:13:10.663Z,7.88
2023-05-22T16:15:39.847Z,7.15
2023-05-22T16:18:07.385Z,7.50
2023-05-22T16:20:34.885Z,7.63
2023-05-22T16:23:01.834Z,8.10
2023-05-22T16:25:28.765Z,7.25
2023-05-22T16:27:55.739Z,7.57
2023-05-22T16:30:22.651Z,8.35
2023-05-22T16:32:49.616Z,9.73
2023-05-22T16:35:16.940Z,7.13
2023-05-22T16:37:43.858Z,8.85
2023-05-22T16:40:11.062Z,9.30
2023-05-22T16:42:39.206Z,10.48
2023-05-22T16:45:06.708Z,9.30
2023-05-22T16:47:33.580Z,10.02
2023-05-22T16:50:00.567Z,10.40
2023-05-22T16:52:27.611Z,8.40
2023-05-22T16:54:54.602Z,9.55
2023-05-22T16:57:22.671Z,11.32
2023-05-22T16:59:50.063Z,8.70
2023-05-22T17:02:17.033Z,7.13
2023-05-22T17:04:43.995Z,9.23
2023-05-22T17:07:10.953Z,12.60
2023-05-22T17:09:38.186Z,8.73
2023-05-22T17:12:05.504Z,8.52
2023-05-22T17:14:34.300Z,7.53
2023-05-22T17:17:01.311Z,8.68
2023-05-22T17:19:28.237Z,9.93
2023-05-22T17:21:56.706Z,7.95
2023-05-22T17:24:23.698Z,15.07
2023-05-22T17:26:50.785Z,10.82
2023-05-22T17:29:17.665Z,11.50
2023-05-22T17:31:44.648Z,11.20
2023-05-22T17:34:11.611Z,10.20
2023-05-22T17:36:38.524Z,11.00
2023-05-22T17:39:05.398Z,12.63
2023-05-22T17:41:32.328Z,9.65
2023-05-22T17:44:01.439Z,10.98
2023-05-22T17:46:28.389Z,11.75
2023-05-22T17:48:55.504Z,14.95
2023-05-22T17:51:22.680Z,10.85
2023-05-22T17:53:56.260Z,13.57
2023-05-22T17:58:50.873Z,12.00
2023-05-22T18:01:18.221Z,10.15
2023-05-22T18:03:46.037Z,9.07
2023-05-22T18:06:13.308Z,9.48
2023-05-22T18:08:40.230Z,9.93
2023-05-22T18:11:07.137Z,11.38
2023-05-22T18:13:34.202Z,10.10
2023-05-22T18:16:01.424Z,18.58
2023-05-22T18:18:28.376Z,14.32
2023-05-22T18:20:55.862Z,11.75
2023-05-22T18:23:22.879Z,13.65
2023-05-22T18:25:49.830Z,10.50
2023-05-22T18:28:16.813Z,13.70
2023-05-22T18:30:44.950Z,11.35
2023-05-22T18:33:12.150Z,12.15
2023-05-22T18:35:39.081Z,11.05
2023-05-22T18:38:06.484Z,10.95
2023-05-22T18:40:33.430Z,12.52
2023-05-22T18:43:00.335Z,9.02
2023-05-22T18:45:27.207Z,13.75
2023-05-22T18:47:54.234Z,16.17
2023-05-22T18:50:23.424Z,11.15
2023-05-22T18:52:50.765Z,10.05
2023-05-22T18:55:17.698Z,13.43
2023-05-22T18:57:44.631Z,18.05
2023-05-22T19:00:11.758Z,10.85
2023-05-22T19:02:39.102Z,10.20
2023-05-22T19:05:07.088Z,9.40
2023-05-22T19:07:34.215Z,13.68
2023-05-22T19:10:01.357Z,9.90
2023-05-22T19:12:31.703Z,9.43
2023-05-22T19:15:00.038Z,10.43
2023-05-22T19:17:27.061Z,11.60
2023-05-22T19:19:53.962Z,16.08
2023-05-22T19:22:21.031Z,12.35
2023-05-22T19:24:47.897Z,12.68
2023-05-22T19:27:14.817Z,9.43
2023-05-22T19:29:41.776Z,8.73
2023-05-22T19:32:08.711Z,8.88
2023-05-22T19:34:35.738Z,10.02
2023-05-22T19:37:02.801Z,16.38
2023-05-22T19:39:29.746Z,10.60
2023-05-22T19:41:56.643Z,8.50
2023-05-22T19:44:23.514Z,10.82
2023-05-22T19:46:50.488Z,10.40
2023-05-22T19:49:17.413Z,11.07
2023-05-22T19:51:44.355Z,12.45
2023-05-22T19:54:11.378Z,11.10
2023-05-22T19:56:38.331Z,11.43
2023-05-22T19:59:05.294Z,15.30
2023-05-22T20:01:32.269Z,10.82
2023-05-22T20:04:01.096Z,13.88
2023-05-22T20:06:31.529Z,11.60
2023-05-22T20:08:58.529Z,12.07
2023-05-22T20:11:26.414Z,10.73
2023-05-22T20:13:54.574Z,12.98
2023-05-22T20:16:21.680Z,10.48
2023-05-22T20:18:48.949Z,10.88
2023-05-22T20:21:15.879Z,9.20
2023-05-22T20:23:44.473Z,11.68
2023-05-22T20:26:11.443Z,10.40
2023-05-22T20:28:38.466Z,10.85
2023-05-22T20:31:06.060Z,15.40
2023-05-22T20:33:33.317Z,9.65
2023-05-22T20:36:01.846Z,18.27
2023-05-22T20:38:29.349Z,12.48
2023-05-22T20:40:58.508Z,14.43
2023-05-22T20:43:26.262Z,11.05
2023-05-22T20:45:54.237Z,10.88
2023-05-22T20:48:21.288Z,12.38
2023-05-22T20:50:48.575Z,12.15
2023-05-22T20:53:15.645Z,14.27
2023-05-22T20:55:42.918Z,10.80
2023-05-22T20:58:09.872Z,18.88
2023-05-22T21:00:36.761Z,12.30
2023-05-22T21:03:03.771Z,13.82
2023-05-22T21:05:30.852Z,17.55
2023-05-22T21:07:58.136Z,12.05
2023-05-22T21:10:25.061Z,13.10
2023-05-22T21:12:51.985Z,11.50
2023-05-22T21:15:19.290Z,9.98
2023-05-22T21:17:46.739Z,14.35
2023-05-22T21:20:14.708Z,10.45
2023-05-22T21:22:41.656Z,12.55
2023-05-22T21:25:09.308Z,18.23
2023-05-22T21:27:36.233Z,13.98
2023-05-22T21:30:03.251Z,16.90
2023-05-22T21:32:30.231Z,16.10
2023-05-22T21:34:57.136Z,15.27
2023-05-22T21:37:24.092Z,19.67
2023-05-22T21:39:51.013Z,14.60
2023-05-22T21:42:18.286Z,11.88
2023-05-22T21:44:45.204Z,14.38
2023-05-22T21:47:12.075Z,12.32
2023-05-22T21:49:39.894Z,14.38
2023-05-22T21:52:06.918Z,16.08
2023-05-22T21:54:33.852Z,19.10
2023-05-22T21:57:00.871Z,17.38
2023-05-22T21:59:27.845Z,14.90
2023-05-22T22:01:54.834Z,14.55
2023-05-22T22:04:21.796Z,13.63
2023-05-22T22:06:48.758Z,14.18
2023-05-22T22:09:15.631Z,17.67
2023-05-22T22:11:42.475Z,18.00
2023-05-22T22:14:09.452Z,15.73
2023-05-22T22:16:36.434Z,13.45
2023-05-22T22:19:03.460Z,12.98
2023-05-22T22:21:31.609Z,13.02
2023-05-22T22:23:58.521Z,16.45
2023-05-22T22:26:25.411Z,12.90
2023-05-22T22:28:52.648Z,14.05
2023-05-22T22:31:19.659Z,14.70
2023-05-22T22:33:46.614Z,20.23
2023-05-22T22:36:13.595Z,17.33
2023-05-22T22:38:40.453Z,16.10
2023-05-22T22:41:09.375Z,14.50
2023-05-22T22:43:36.720Z,12.07
2023-05-22T22:46:03.696Z,14.07
2023-05-22T22:48:30.685Z,14.43
2023-05-22T22:50:58.231Z,13.32
2023-05-22T22:53:25.172Z,14.13
2023-05-22T22:55:56.779Z,15.98
2023-05-22T22:58:23.833Z,20.88
2023-05-22T23:00:50.765Z,21.15
2023-05-22T23:03:17.711Z,19.30
2023-05-22T23:05:44.930Z,18.90
2023-05-22T23:08:12.350Z,20.02
2023-05-22T23:10:39.259Z,14.30
2023-05-22T23:13:06.755Z,13.82
2023-05-22T23:15:33.959Z,14.95
2023-05-22T23:18:00.967Z,19.52
2023-05-22T23:20:27.878Z,17.52
2023-05-22T23:22:54.805Z,18.02
2023-05-22T23:25:21.779Z,17.48
2023-05-22T23:27:48.706Z,16.23
2023-05-22T23:30:15.759Z,20.90
2023-05-22T23:32:42.749Z,12.82
2023-05-22T23:35:10.928Z,20.70
2023-05-22T23:37:38.118Z,20.50
2023-05-22T23:40:06.714Z,15.30
2023-05-22T23:42:35.381Z,18.67
2023-05-22T23:45:05.934Z,16.05
2023-05-22T23:47:32.862Z,23.98
2023-05-22T23:50:00.230Z,15.50
2023-05-22T23:52:27.668Z,20.25
2023-05-22T23:54:54.619Z,21.92
2023-05-22T23:57:21.583Z,17.50
2023-05-22T23:59:48.505Z,18.38
